Dundee, Oregon
Current Conditions -  °F | °C
As of 9:53 AM on Thursday 27 Nov 2014 (Local Time) from KMMV Reporting Station
Overcast Overcast  
Wind Chill: 56°   Ceiling: 3900
Heat Index: 56°   Visibility: 10mi
Dew Point: 49°   Wind: 14mph
Humidity: 77%   Direction: 180°S
Pressure: 29.99"   Gusts: NA
Location:  45.28°N, 123.01°W
Report Text: KMMV 271753Z AUTO 18012KT 10SM OVC039 13/09 A2999 RMK AO2 SLP155 60002 T01330094 10156 20128 51009 $
Loading
Personal Weather Stations






























Interactive Weather Map New forecast layout! Learn more

10-Day Weather Forecast

Advertisements
Track Severe Weather on mobile